sensor_id;sensor_type;location;lat;lon;timestamp;pressure;altitude;pressure_sealevel;temperature
61595;BMP280;47397;48.194;11.632;2023-10-31T00:00:26;94455.09;;;10.91
61595;BMP280;47397;48.194;11.632;2023-10-31T00:01:26;94449.94;;;10.93
61595;BMP280;47397;48.194;11.632;2023-10-31T00:02:27;94459.44;;;10.89
61595;BMP280;47397;48.194;11.632;2023-10-31T00:03:42;94460.13;;;10.93
61595;BMP280;47397;48.194;11.632;2023-10-31T00:04:42;94453.91;;;10.81
61595;BMP280;47397;48.194;11.632;2023-10-31T00:05:43;94462.13;;;10.86
61595;BMP280;47397;48.194;11.632;2023-10-31T00:06:43;94463.78;;;10.87
61595;BMP280;47397;48.194;11.632;2023-10-31T00:07:43;94464.09;;;10.81
61595;BMP280;47397;48.194;11.632;2023-10-31T00:08:44;94458.28;;;10.78
61595;BMP280;47397;48.194;11.632;2023-10-31T00:09:44;94462.53;;;10.77
61595;BMP280;47397;48.194;11.632;2023-10-31T00:10:45;94466.69;;;10.80
61595;BMP280;47397;48.194;11.632;2023-10-31T00:11:45;94467.59;;;10.79
61595;BMP280;47397;48.194;11.632;2023-10-31T00:12:47;94459.16;;;10.78
61595;BMP280;47397;48.194;11.632;2023-10-31T00:13:47;94459.97;;;10.79
61595;BMP280;47397;48.194;11.632;2023-10-31T00:14:48;94470.31;;;10.74
61595;BMP280;47397;48.194;11.632;2023-10-31T00:15:48;94474.66;;;10.72
61595;BMP280;47397;48.194;11.632;2023-10-31T00:16:48;94466.34;;;10.69
61595;BMP280;47397;48.194;11.632;2023-10-31T00:17:49;94464.03;;;10.64
61595;BMP280;47397;48.194;11.632;2023-10-31T00:18:49;94466.34;;;10.69
61595;BMP280;47397;48.194;11.632;2023-10-31T00:19:50;94462.69;;;10.74
61595;BMP280;47397;48.194;11.632;2023-10-31T00:20:50;94472.19;;;10.71
61595;BMP280;47397;48.194;11.632;2023-10-31T00:21:50;94468.75;;;10.72
61595;BMP280;47397;48.194;11.632;2023-10-31T00:22:51;94469.88;;;10.66
61595;BMP280;47397;48.194;11.632;2023-10-31T00:23:51;94461.50;;;10.64
61595;BMP280;47397;48.194;11.632;2023-10-31T00:24:51;94470.09;;;10.61
61595;BMP280;47397;48.194;11.632;2023-10-31T00:25:52;94464.03;;;10.64
61595;BMP280;47397;48.194;11.632;2023-10-31T00:26:52;94465.16;;;10.58
61595;BMP280;47397;48.194;11.632;2023-10-31T00:27:54;94468.44;;;10.60
61595;BMP280;47397;48.194;11.632;2023-10-31T00:28:54;94467.00;;;10.55
61595;BMP280;47397;48.194;11.632;2023-10-31T00:29:55;94468.94;;;10.50
61595;BMP280;47397;48.194;11.632;2023-10-31T00:30:55;94473.34;;;10.46
61595;BMP280;47397;48.194;11.632;2023-10-31T00:31:55;94470.06;;;10.44
61595;BMP280;47397;48.194;11.632;2023-10-31T00:32:56;94483.28;;;10.51
61595;BMP280;47397;48.194;11.632;2023-10-31T00:33:56;94482.47;;;10.50
61595;BMP280;47397;48.194;11.632;2023-10-31T00:34:57;94477.00;;;10.41
61595;BMP280;47397;48.194;11.632;2023-10-31T00:35:57;94472.91;;;10.37
61595;BMP280;47397;48.194;11.632;2023-10-31T00:36:57;94479.31;;;10.45
61595;BMP280;47397;48.194;11.632;2023-10-31T00:37:58;94473.34;;;10.46
61595;BMP280;47397;48.194;11.632;2023-10-31T00:38:58;94476.91;;;10.42
61595;BMP280;47397;48.194;11.632;2023-10-31T00:39:59;94475.13;;;10.44
61595;BMP280;47397;48.194;11.632;2023-10-31T00:40:59;94479.25;;;10.47
61595;BMP280;47397;48.194;11.632;2023-10-31T00:42:00;94476.63;;;10.48
61595;BMP280;47397;48.194;11.632;2023-10-31T00:43:01;94473.94;;;10.51
61595;BMP280;47397;48.194;11.632;2023-10-31T00:44:02;94482.53;;;10.49
61595;BMP280;47397;48.194;11.632;2023-10-31T00:45:03;94464.53;;;10.34
61595;BMP280;47397;48.194;11.632;2023-10-31T00:46:03;94473.06;;;10.33
61595;BMP280;47397;48.194;11.632;2023-10-31T00:47:04;94476.78;;;10.45
61595;BMP280;47397;48.194;11.632;2023-10-31T00:48:05;94480.59;;;10.35
61595;BMP280;47397;48.194;11.632;2023-10-31T00:49:05;94477.66;;;10.25
61595;BMP280;47397;48.194;11.632;2023-10-31T00:50:06;94481.50;;;10.34
61595;BMP280;47397;48.194;11.632;2023-10-31T00:51:07;94472.22;;;10.14
61595;BMP280;47397;48.194;11.632;2023-10-31T00:52:07;94472.72;;;10.22
61595;BMP280;47397;48.194;11.632;2023-10-31T00:53:08;94478.41;;;10.09
61595;BMP280;47397;48.194;11.632;2023-10-31T00:54:08;94474.69;;;10.16
61595;BMP280;47397;48.194;11.632;2023-10-31T00:55:08;94470.38;;;10.18
61595;BMP280;47397;48.194;11.632;2023-10-31T00:56:09;94471.91;;;10.22
61595;BMP280;47397;48.194;11.632;2023-10-31T00:57:09;94473.41;;;10.26
61595;BMP280;47397;48.194;11.632;2023-10-31T00:58:11;94465.19;;;10.21
61595;BMP280;47397;48.194;11.632;2023-10-31T00:59:12;94466.63;;;10.26
61595;BMP280;47397;48.194;11.632;2023-10-31T01:00:13;94473.06;;;10.15
61595;BMP280;47397;48.194;11.632;2023-10-31T01:01:14;94471.19;;;10.18
61595;BMP280;47397;48.194;11.632;2023-10-31T01:02:14;94479.44;;;10.23
61595;BMP280;47397;48.194;11.632;2023-10-31T01:03:14;94483.78;;;10.21
61595;BMP280;47397;48.194;11.632;2023-10-31T01:04:15;94484.59;;;10.22
61595;BMP280;47397;48.194;11.632;2023-10-31T01:05:15;94492.31;;;10.19
61595;BMP280;47397;48.194;11.632;2023-10-31T01:06:16;94492.00;;;10.26
61595;BMP280;47397;48.194;11.632;2023-10-31T01:07:16;94487.75;;;10.27
61595;BMP280;47397;48.194;11.632;2023-10-31T01:08:16;94477.97;;;10.18
61595;BMP280;47397;48.194;11.632;2023-10-31T01:09:17;94478.19;;;10.13
61595;BMP280;47397;48.194;11.632;2023-10-31T01:10:17;94476.06;;;10.04
61595;BMP280;47397;48.194;11.632;2023-10-31T01:11:18;94474.91;;;10.11
61595;BMP280;47397;48.194;11.632;2023-10-31T01:12:18;94482.59;;;10.10
61595;BMP280;47397;48.194;11.632;2023-10-31T01:13:20;94474.69;;;10.16
61595;BMP280;47397;48.194;11.632;2023-10-31T01:14:20;94481.34;;;10.18
61595;BMP280;47397;48.194;11.632;2023-10-31T01:15:21;94488.28;;;10.15
61595;BMP280;47397;48.194;11.632;2023-10-31T01:16:21;94485.00;;;10.13
61595;BMP280;47397;48.194;11.632;2023-10-31T01:17:21;94485.00;;;10.13
61595;BMP280;47397;48.194;11.632;2023-10-31T01:18:22;94478.75;;;10.20
61595;BMP280;47397;48.194;11.632;2023-10-31T01:19:22;94484.59;;;10.22
61595;BMP280;47397;48.194;11.632;2023-10-31T01:20:23;94476.16;;;10.21
61595;BMP280;47397;48.194;11.632;2023-10-31T01:21:23;94487.31;;;10.17
61595;BMP280;47397;48.194;11.632;2023-10-31T01:22:24;94490.59;;;10.19
61595;BMP280;47397;48.194;11.632;2023-10-31T01:23:24;94483.72;;;10.23
61595;BMP280;47397;48.194;11.632;2023-10-31T01:24:24;94485.44;;;10.22
61595;BMP280;47397;48.194;11.632;2023-10-31T01:25:25;94498.28;;;10.18
61595;BMP280;47397;48.194;11.632;2023-10-31T01:26:25;94499.25;;;10.15
61595;BMP280;47397;48.194;11.632;2023-10-31T01:27:26;94499.13;;;10.18
61595;BMP280;47397;48.194;11.632;2023-10-31T01:28:27;94506.66;;;10.20
61595;BMP280;47397;48.194;11.632;2023-10-31T01:29:28;94501.72;;;10.17
61595;BMP280;47397;48.194;11.632;2023-10-31T01:30:28;94492.31;;;10.19
61595;BMP280;47397;48.194;11.632;2023-10-31T01:31:28;94489.59;;;10.23
61595;BMP280;47397;48.194;11.632;2023-10-31T01:32:29;94486.78;;;10.11
61595;BMP280;47397;48.194;11.632;2023-10-31T01:33:29;94489.09;;;10.15
61595;BMP280;47397;48.194;11.632;2023-10-31T01:34:30;94486.63;;;10.14
61595;BMP280;47397;48.194;11.632;2023-10-31T01:35:30;94489.03;;;10.17
61595;BMP280;47397;48.194;11.632;2023-10-31T01:36:30;94491.41;;;10.21
61595;BMP280;47397;48.194;11.632;2023-10-31T01:37:31;94489.69;;;10.22
61595;BMP280;47397;48.194;11.632;2023-10-31T01:38:31;94493.03;;;10.22
61595;BMP280;47397;48.194;11.632;2023-10-31T01:39:32;94492.16;;;10.23
61595;BMP280;47397;48.194;11.632;2023-10-31T01:40:32;94489.53;;;10.25
61595;BMP280;47397;48.194;11.632;2023-10-31T01:41:32;94490.22;;;10.10
61595;BMP280;47397;48.194;11.632;2023-10-31T01:42:33;94496.50;;;10.20
61595;BMP280;47397;48.194;11.632;2023-10-31T01:43:36;94498.88;;;10.24
61595;BMP280;47397;48.194;11.632;2023-10-31T01:44:37;94500.72;;;10.21
61595;BMP280;47397;48.194;11.632;2023-10-31T01:45:37;94505.16;;;10.16
61595;BMP280;47397;48.194;11.632;2023-10-31T01:46:37;94509.63;;;10.11
61595;BMP280;47397;48.194;11.632;2023-10-31T01:47:38;94505.50;;;10.08
61595;BMP280;47397;48.194;11.632;2023-10-31T01:48:38;94511.13;;;10.15
61595;BMP280;47397;48.194;11.632;2023-10-31T01:49:39;94502.31;;;10.03
61595;BMP280;47397;48.194;11.632;2023-10-31T01:50:39;94504.91;;;10.01
61595;BMP280;47397;48.194;11.632;2023-10-31T01:51:40;94512.97;;;10.11
61595;BMP280;47397;48.194;11.632;2023-10-31T01:52:41;94510.31;;;10.14
61595;BMP280;47397;48.194;11.632;2023-10-31T01:53:41;94499.31;;;10.14
61595;BMP280;47397;48.194;11.632;2023-10-31T01:54:42;94499.66;;;10.06
61595;BMP280;47397;48.194;11.632;2023-10-31T01:55:44;94487.72;;;10.08
61595;BMP280;47397;48.194;11.632;2023-10-31T01:56:45;94496.31;;;10.06
61595;BMP280;47397;48.194;11.632;2023-10-31T01:57:47;94499.53;;;10.09
61595;BMP280;47397;48.194;11.632;2023-10-31T01:58:50;94496.38;;;10.04
61595;BMP280;47397;48.194;11.632;2023-10-31T01:59:50;94502.13;;;10.08
61595;BMP280;47397;48.194;11.632;2023-10-31T02:00:51;94500.34;;;10.10
61595;BMP280;47397;48.194;11.632;2023-10-31T02:01:51;94502.22;;;10.06
61595;BMP280;47397;48.194;11.632;2023-10-31T02:02:53;94500.34;;;10.10
61595;BMP280;47397;48.194;11.632;2023-10-31T02:03:53;94500.63;;;10.03
61595;BMP280;47397;48.194;11.632;2023-10-31T02:04:54;94499.31;;;10.14
61595;BMP280;47397;48.194;11.632;2023-10-31T02:05:55;94503.66;;;10.12
61595;BMP280;47397;48.194;11.632;2023-10-31T02:06:55;94504.53;;;10.11
61595;BMP280;47397;48.194;11.632;2023-10-31T02:07:56;94498.84;;;10.06
61595;BMP280;47397;48.194;11.632;2023-10-31T02:08:57;94508.88;;;10.09
61595;BMP280;47397;48.194;11.632;2023-10-31T02:09:57;94508.59;;;10.15
61595;BMP280;47397;48.194;11.632;2023-10-31T02:10:58;94510.38;;;10.13
61595;BMP280;47397;48.194;11.632;2023-10-31T02:11:58;94510.44;;;10.11
61595;BMP280;47397;48.194;11.632;2023-10-31T02:12:58;94511.19;;;10.13
61595;BMP280;47397;48.194;11.632;2023-10-31T02:14:11;94518.25;;;10.07
61595;BMP280;47397;48.194;11.632;2023-10-31T02:15:11;94513.25;;;10.05
61595;BMP280;47397;48.194;11.632;2023-10-31T02:16:11;94519.25;;;10.02
61595;BMP280;47397;48.194;11.632;2023-10-31T02:17:12;94518.25;;;10.07
61595;BMP280;47397;48.194;11.632;2023-10-31T02:18:12;94520.22;;;10.00
61595;BMP280;47397;48.194;11.632;2023-10-31T02:19:16;94524.06;;;9.90
61595;BMP280;47397;48.194;11.632;2023-10-31T02:20:18;94523.22;;;9.89
61595;BMP280;47397;48.194;11.632;2023-10-31T02:21:20;94518.63;;;9.97
61595;BMP280;47397;48.194;11.632;2023-10-31T02:22:22;94529.53;;;9.99
61595;BMP280;47397;48.194;11.632;2023-10-31T02:23:22;94529.59;;;9.98
61595;BMP280;47397;48.194;11.632;2023-10-31T02:24:22;94532.56;;;9.89
61595;BMP280;47397;48.194;11.632;2023-10-31T02:25:23;94529.59;;;9.98
61595;BMP280;47397;48.194;11.632;2023-10-31T02:26:23;94533.72;;;10.00
61595;BMP280;47397;48.194;11.632;2023-10-31T02:27:24;94537.16;;;9.99
61595;BMP280;47397;48.194;11.632;2023-10-31T02:28:24;94533.09;;;9.95
61595;BMP280;47397;48.194;11.632;2023-10-31T02:29:24;94532.75;;;9.84
61595;BMP280;47397;48.194;11.632;2023-10-31T02:30:25;94541.63;;;9.94
61595;BMP280;47397;48.194;11.632;2023-10-31T02:31:26;94541.75;;;9.91
61595;BMP280;47397;48.194;11.632;2023-10-31T02:32:26;94542.31;;;9.98
61595;BMP280;47397;48.194;11.632;2023-10-31T02:33:27;94541.63;;;9.94
61595;BMP280;47397;48.194;11.632;2023-10-31T02:34:27;94550.81;;;9.97
61595;BMP280;47397;48.194;11.632;2023-10-31T02:35:28;94549.50;;;9.88
61595;BMP280;47397;48.194;11.632;2023-10-31T02:36:28;94551.19;;;9.88
61595;BMP280;47397;48.194;11.632;2023-10-31T02:37:30;94546.81;;;9.91
61595;BMP280;47397;48.194;11.632;2023-10-31T02:38:30;94548.47;;;9.92
61595;BMP280;47397;48.194;11.632;2023-10-31T02:39:30;94546.00;;;9.91
61595;BMP280;47397;48.194;11.632;2023-10-31T02:40:31;94551.47;;;9.82
61595;BMP280;47397;48.194;11.632;2023-10-31T02:41:31;94538.59;;;9.86
61595;BMP280;47397;48.194;11.632;2023-10-31T02:42:32;94546.69;;;9.94
61595;BMP280;47397;48.194;11.632;2023-10-31T02:43:32;94548.81;;;9.85
61595;BMP280;47397;48.194;11.632;2023-10-31T02:44:32;94549.81;;;9.81
61595;BMP280;47397;48.194;11.632;2023-10-31T02:45:33;94556.34;;;9.86
61595;BMP280;47397;48.194;11.632;2023-10-31T02:46:37;94550.50;;;9.84
61595;BMP280;47397;48.194;11.632;2023-10-31T02:47:38;94542.56;;;9.92
61595;BMP280;47397;48.194;11.632;2023-10-31T02:48:38;94538.59;;;9.86
61595;BMP280;47397;48.194;11.632;2023-10-31T02:49:39;94539.47;;;9.85
61595;BMP280;47397;48.194;11.632;2023-10-31T02:50:39;94543.09;;;9.80
61595;BMP280;47397;48.194;11.632;2023-10-31T02:51:39;94547.09;;;9.85
61595;BMP280;47397;48.194;11.632;2023-10-31T02:52:41;94544.47;;;9.87
61595;BMP280;47397;48.194;11.632;2023-10-31T02:53:42;94553.06;;;9.84
61595;BMP280;47397;48.194;11.632;2023-10-31T02:54:42;94528.63;;;9.82
61595;BMP280;47397;48.194;11.632;2023-10-31T02:55:43;94548.88;;;9.83
61595;BMP280;47397;48.194;11.632;2023-10-31T02:56:43;94547.34;;;9.79
61595;BMP280;47397;48.194;11.632;2023-10-31T02:57:43;94539.81;;;9.78
61595;BMP280;47397;48.194;11.632;2023-10-31T02:58:44;94534.59;;;9.81
61595;BMP280;47397;48.194;11.632;2023-10-31T02:59:44;94534.88;;;9.75
61595;BMP280;47397;48.194;11.632;2023-10-31T03:00:45;94542.47;;;9.75
61595;BMP280;47397;48.194;11.632;2023-10-31T03:01:45;94550.72;;;9.80
61595;BMP280;47397;48.194;11.632;2023-10-31T03:02:45;94548.31;;;9.77
61595;BMP280;47397;48.194;11.632;2023-10-31T03:03:46;94549.94;;;9.78
61595;BMP280;47397;48.194;11.632;2023-10-31T03:04:46;94548.25;;;9.78
61595;BMP280;47397;48.194;11.632;2023-10-31T03:05:47;94545.97;;;9.72
61595;BMP280;47397;48.194;11.632;2023-10-31T03:06:47;94552.56;;;9.76
61595;BMP280;47397;48.194;11.632;2023-10-31T03:07:49;94544.00;;;9.79
61595;BMP280;47397;48.194;11.632;2023-10-31T03:08:49;94555.47;;;9.87
61595;BMP280;47397;48.194;11.632;2023-10-31T03:09:49;94560.66;;;9.84
61595;BMP280;47397;48.194;11.632;2023-10-31T03:10:50;94561.69;;;9.80
61595;BMP280;47397;48.194;11.632;2023-10-31T03:11:50;94559.34;;;9.76
61595;BMP280;47397;48.194;11.632;2023-10-31T03:12:51;94566.00;;;9.78
61595;BMP280;47397;48.194;11.632;2023-10-31T03:13:51;94566.56;;;9.85
61595;BMP280;47397;48.194;11.632;2023-10-31T03:14:51;94562.31;;;9.85
61595;BMP280;47397;48.194;11.632;2023-10-31T03:15:52;94566.19;;;9.74
61595;BMP280;47397;48.194;11.632;2023-10-31T03:16:52;94570.13;;;9.81
61595;BMP280;47397;48.194;11.632;2023-10-31T03:17:53;94586.41;;;9.75
61595;BMP280;47397;48.194;11.632;2023-10-31T03:18:53;94583.69;;;9.80
61595;BMP280;47397;48.194;11.632;2023-10-31T03:19:53;94585.28;;;9.82
61595;BMP280;47397;48.194;11.632;2023-10-31T03:20:54;94588.78;;;9.80
61595;BMP280;47397;48.194;11.632;2023-10-31T03:21:54;94592.31;;;9.76
61595;BMP280;47397;48.194;11.632;2023-10-31T03:22:56;94588.78;;;9.80
61595;BMP280;47397;48.194;11.632;2023-10-31T03:23:57;94591.25;;;9.81
61595;BMP280;47397;48.194;11.632;2023-10-31T03:24:57;94588.78;;;9.80
61595;BMP280;47397;48.194;11.632;2023-10-31T03:25:57;94586.63;;;9.70
61595;BMP280;47397;48.194;11.632;2023-10-31T03:26:58;94583.94;;;9.74
61595;BMP280;47397;48.194;11.632;2023-10-31T03:27:58;94583.00;;;9.76
61595;BMP280;47397;48.194;11.632;2023-10-31T03:28:59;94576.34;;;9.74
61595;BMP280;47397;48.194;11.632;2023-10-31T03:29:59;94577.84;;;9.78
61595;BMP280;47397;48.194;11.632;2023-10-31T03:31:00;94575.31;;;9.78
61595;BMP280;47397;48.194;11.632;2023-10-31T03:32:00;94569.28;;;9.80
61595;BMP280;47397;48.194;11.632;2023-10-31T03:33:00;94571.34;;;9.72
61595;BMP280;47397;48.194;11.632;2023-10-31T03:34:01;94557.69;;;9.75
61595;BMP280;47397;48.194;11.632;2023-10-31T03:35:01;94563.53;;;9.77
61595;BMP280;47397;48.194;11.632;2023-10-31T03:36:02;94558.31;;;9.80
61595;BMP280;47397;48.194;11.632;2023-10-31T03:37:03;94555.78;;;9.80
61595;BMP280;47397;48.194;11.632;2023-10-31T03:38:04;94556.13;;;9.72
61595;BMP280;47397;48.194;11.632;2023-10-31T03:39:05;94557.63;;;9.76
61595;BMP280;47397;48.194;11.632;2023-10-31T03:40:07;94555.91;;;9.77
61595;BMP280;47397;48.194;11.632;2023-10-31T03:41:07;94553.72;;;9.69
61595;BMP280;47397;48.194;11.632;2023-10-31T03:42:08;94554.47;;;9.71
61595;BMP280;47397;48.194;11.632;2023-10-31T03:43:08;94557.88;;;9.70
61595;BMP280;47397;48.194;11.632;2023-10-31T03:44:09;94558.44;;;9.77
61595;BMP280;47397;48.194;11.632;2023-10-31T03:45:09;94550.22;;;9.71
61595;BMP280;47397;48.194;11.632;2023-10-31T03:46:11;94563.94;;;9.66
61595;BMP280;47397;48.194;11.632;2023-10-31T03:47:11;94555.41;;;9.68
61595;BMP280;47397;48.194;11.632;2023-10-31T03:48:12;94555.28;;;9.71
61595;BMP280;47397;48.194;11.632;2023-10-31T03:49:12;94550.22;;;9.71
61595;BMP280;47397;48.194;11.632;2023-10-31T03:50:12;94550.03;;;9.76
61595;BMP280;47397;48.194;11.632;2023-10-31T03:51:13;94554.34;;;9.74
61595;BMP280;47397;48.194;11.632;2023-10-31T03:52:13;94554.47;;;9.71
61595;BMP280;47397;48.194;11.632;2023-10-31T03:53:15;94547.53;;;9.75
61595;BMP280;47397;48.194;11.632;2023-10-31T03:54:16;94557.97;;;9.68
61595;BMP280;47397;48.194;11.632;2023-10-31T03:55:17;94571.28;;;9.74
61595;BMP280;47397;48.194;11.632;2023-10-31T03:56:17;94569.88;;;9.66
61595;BMP280;47397;48.194;11.632;2023-10-31T03:57:17;94574.00;;;9.69
61595;BMP280;47397;48.194;11.632;2023-10-31T03:58:18;94579.97;;;9.68
61595;BMP280;47397;48.194;11.632;2023-10-31T03:59:18;94576.63;;;9.66
61595;BMP280;47397;48.194;11.632;2023-10-31T04:00:19;94582.56;;;9.66
61595;BMP280;47397;48.194;11.632;2023-10-31T04:01:19;94586.69;;;9.69
61595;BMP280;47397;48.194;11.632;2023-10-31T04:02:20;94595.94;;;9.70
61595;BMP280;47397;48.194;11.632;2023-10-31T04:03:20;94594.28;;;9.69
61595;BMP280;47397;48.194;11.632;2023-10-31T04:04:20;94597.47;;;9.74
61595;BMP280;47397;48.194;11.632;2023-10-31T04:05:21;94597.66;;;9.69
61595;BMP280;47397;48.194;11.632;2023-10-31T04:06:21;94598.59;;;9.67
61595;BMP280;47397;48.194;11.632;2023-10-31T04:07:21;94589.84;;;9.74
61595;BMP280;47397;48.194;11.632;2023-10-31T04:08:23;94593.34;;;9.71
61595;BMP280;47397;48.194;11.632;2023-10-31T04:09:24;94598.47;;;9.70
61595;BMP280;47397;48.194;11.632;2023-10-31T04:10:24;94594.28;;;9.69
61595;BMP280;47397;48.194;11.632;2023-10-31T04:11:24;94594.84;;;9.76
61595;BMP280;47397;48.194;11.632;2023-10-31T04:12:25;94592.25;;;9.77
61595;BMP280;47397;48.194;11.632;2023-10-31T04:13:25;94587.38;;;9.73
61595;BMP280;47397;48.194;11.632;2023-10-31T04:14:26;94585.97;;;9.65
61595;BMP280;47397;48.194;11.632;2023-10-31T04:15:26;94590.81;;;9.71
61595;BMP280;47397;48.194;11.632;2023-10-31T04:16:26;94594.78;;;9.77
61595;BMP280;47397;48.194;11.632;2023-10-31T04:17:27;94588.31;;;9.70
61595;BMP280;47397;48.194;11.632;2023-10-31T04:18:27;94592.44;;;9.73
61595;BMP280;47397;48.194;11.632;2023-10-31T04:19:28;94589.59;;;9.80
61595;BMP280;47397;48.194;11.632;2023-10-31T04:20:28;94590.69;;;9.75
61595;BMP280;47397;48.194;11.632;2023-10-31T04:21:28;94597.13;;;9.82
61595;BMP280;47397;48.194;11.632;2023-10-31T04:22:29;94595.69;;;9.76
61595;BMP280;47397;48.194;11.632;2023-10-31T04:23:30;94596.50;;;9.77
61595;BMP280;47397;48.194;11.632;2023-10-31T04:24:31;94599.81;;;9.79
61595;BMP280;47397;48.194;11.632;2023-10-31T04:25:31;94617.56;;;9.79
61595;BMP280;47397;48.194;11.632;2023-10-31T04:26:32;94620.94;;;9.79
61595;BMP280;47397;48.194;11.632;2023-10-31T04:27:32;94625.25;;;9.77
61595;BMP280;47397;48.194;11.632;2023-10-31T04:28:32;94626.19;;;9.75
61595;BMP280;47397;48.194;11.632;2023-10-31T04:29:33;94627.84;;;9.76
61595;BMP280;47397;48.194;11.632;2023-10-31T04:30:33;94632.16;;;9.74
61595;BMP280;47397;48.194;11.632;2023-10-31T04:31:34;94622.84;;;9.74
61595;BMP280;47397;48.194;11.632;2023-10-31T04:32:34;94629.31;;;9.81
61595;BMP280;47397;48.194;11.632;2023-10-31T04:33:34;94622.97;;;9.71
61595;BMP280;47397;48.194;11.632;2023-10-31T04:34:35;94626.31;;;9.71
61595;BMP280;47397;48.194;11.632;2023-10-31T04:35:35;94627.09;;;9.74
61595;BMP280;47397;48.194;11.632;2023-10-31T04:36:36;94627.84;;;9.76
61595;BMP280;47397;48.194;11.632;2023-10-31T04:37:36;94628.16;;;9.68
61595;BMP280;47397;48.194;11.632;2023-10-31T04:38:38;94623.78;;;9.71
61595;BMP280;47397;48.194;11.632;2023-10-31T04:39:38;94625.06;;;9.82
61595;BMP280;47397;48.194;11.632;2023-10-31T04:40:38;94618.56;;;9.75
61595;BMP280;47397;48.194;11.632;2023-10-31T04:41:39;94618.53;;;9.76
61595;BMP280;47397;48.194;11.632;2023-10-31T04:42:39;94617.63;;;9.77
61595;BMP280;47397;48.194;11.632;2023-10-31T04:43:40;94619.47;;;9.74
61595;BMP280;47397;48.194;11.632;2023-10-31T04:44:40;94621.94;;;9.75
61595;BMP280;47397;48.194;11.632;2023-10-31T04:45:41;94617.63;;;9.77
61595;BMP280;47397;48.194;11.632;2023-10-31T04:46:41;94623.47;;;9.79
61595;BMP280;47397;48.194;11.632;2023-10-31T04:47:41;94621.81;;;9.78
61595;BMP280;47397;48.194;11.632;2023-10-31T04:48:42;94616.88;;;9.75
61595;BMP280;47397;48.194;11.632;2023-10-31T04:49:42;94625.72;;;9.65
61595;BMP280;47397;48.194;11.632;2023-10-31T04:50:43;94623.31;;;9.62
61595;BMP280;47397;48.194;11.632;2023-10-31T04:51:43;94620.78;;;9.62
61595;BMP280;47397;48.194;11.632;2023-10-31T04:52:44;94623.97;;;9.67
61595;BMP280;47397;48.194;11.632;2023-10-31T04:53:45;94617.19;;;9.67
61595;BMP280;47397;48.194;11.632;2023-10-31T04:54:46;94614.69;;;9.66
61595;BMP280;47397;48.194;11.632;2023-10-31T04:55:46;94612.16;;;9.66
61595;BMP280;47397;48.194;11.632;2023-10-31T04:56:47;94619.00;;;9.64
61595;BMP280;47397;48.194;11.632;2023-10-31T04:57:47;94619.94;;;9.61
61595;BMP280;47397;48.194;11.632;2023-10-31T04:58:48;94607.31;;;9.60
61595;BMP280;47397;48.194;11.632;2023-10-31T04:59:48;94603.91;;;9.61
61595;BMP280;47397;48.194;11.632;2023-10-31T05:00:48;94611.56;;;9.59
61595;BMP280;47397;48.194;11.632;2023-10-31T05:01:49;94604.72;;;9.61
61595;BMP280;47397;48.194;11.632;2023-10-31T05:02:49;94612.59;;;9.55
61595;BMP280;47397;48.194;11.632;2023-10-31T05:03:50;94610.34;;;9.69
61595;BMP280;47397;48.194;11.632;2023-10-31T05:04:50;94610.47;;;9.66
61595;BMP280;47397;48.194;11.632;2023-10-31T05:05:51;94609.25;;;9.75
61595;BMP280;47397;48.194;11.632;2023-10-31T05:06:51;94618.38;;;9.79
61595;BMP280;47397;48.194;11.632;2023-10-31T05:07:51;94608.50;;;9.73
61595;BMP280;47397;48.194;11.632;2023-10-31T05:08:53;94611.28;;;9.67
61595;BMP280;47397;48.194;11.632;2023-10-31T05:09:54;94611.38;;;9.64
61595;BMP280;47397;48.194;11.632;2023-10-31T05:10:54;94617.41;;;9.61
61595;BMP280;47397;48.194;11.632;2023-10-31T05:11:55;94619.25;;;9.58
61595;BMP280;47397;48.194;11.632;2023-10-31T05:12:55;94622.53;;;9.60
61595;BMP280;47397;48.194;11.632;2023-10-31T05:13:55;94620.78;;;9.62
61595;BMP280;47397;48.194;11.632;2023-10-31T05:14:56;94628.44;;;9.60
61595;BMP280;47397;48.194;11.632;2023-10-31T05:15:56;94633.50;;;9.60
61595;BMP280;47397;48.194;11.632;2023-10-31T05:16:56;94628.75;;;9.53
61595;BMP280;47397;48.194;11.632;2023-10-31T05:17:57;94637.88;;;9.57
61595;BMP280;47397;48.194;11.632;2023-10-31T05:18:58;94634.72;;;9.52
61595;BMP280;47397;48.194;11.632;2023-10-31T05:19:58;94637.75;;;9.60
61595;BMP280;47397;48.194;11.632;2023-10-31T05:20:58;94638.59;;;9.60
61595;BMP280;47397;48.194;11.632;2023-10-31T05:21:59;94642.84;;;9.60
61595;BMP280;47397;48.194;11.632;2023-10-31T05:22:59;94641.19;;;9.59
61595;BMP280;47397;48.194;11.632;2023-10-31T05:24:01;94641.13;;;9.60
61595;BMP280;47397;48.194;11.632;2023-10-31T05:25:02;94642.84;;;9.60
61595;BMP280;47397;48.194;11.632;2023-10-31T05:26:05;94650.25;;;9.64
61595;BMP280;47397;48.194;11.632;2023-10-31T05:27:05;94646.97;;;9.62
61595;BMP280;47397;48.194;11.632;2023-10-31T05:28:05;94649.94;;;9.52
61595;BMP280;47397;48.194;11.632;2023-10-31T05:29:06;94648.91;;;9.56
61595;BMP280;47397;48.194;11.632;2023-10-31T05:30:07;94652.16;;;9.59
61595;BMP280;47397;48.194;11.632;2023-10-31T05:31:07;94659.59;;;9.64
61595;BMP280;47397;48.194;11.632;2023-10-31T05:32:08;94661.22;;;9.65
61595;BMP280;47397;48.194;11.632;2023-10-31T05:33:08;94666.66;;;9.56
61595;BMP280;47397;48.194;11.632;2023-10-31T05:34:09;94665.09;;;9.53
61595;BMP280;47397;48.194;11.632;2023-10-31T05:35:09;94665.84;;;9.55
61595;BMP280;47397;48.194;11.632;2023-10-31T05:36:17;94676.06;;;9.54
61595;BMP280;47397;48.194;11.632;2023-10-31T05:37:18;94674.84;;;9.42
61595;BMP280;47397;48.194;11.632;2023-10-31T05:38:18;94676.94;;;9.53
61595;BMP280;47397;48.194;11.632;2023-10-31T05:39:20;94674.47;;;9.51
61595;BMP280;47397;48.194;11.632;2023-10-31T05:40:22;94679.47;;;9.53
61595;BMP280;47397;48.194;11.632;2023-10-31T05:41:22;94672.75;;;9.52
61595;BMP280;47397;48.194;11.632;2023-10-31T05:42:23;94656.31;;;9.40
61595;BMP280;47397;48.194;11.632;2023-10-31T05:43:23;94671.94;;;9.51
61595;BMP280;47397;48.194;11.632;2023-10-31T05:44:23;94671.75;;;9.56
61595;BMP280;47397;48.194;11.632;2023-10-31T05:45:24;94680.25;;;9.55
61595;BMP280;47397;48.194;11.632;2023-10-31T05:46:24;94672.69;;;9.53
61595;BMP280;47397;48.194;11.632;2023-10-31T05:47:25;94671.50;;;9.62